Time;durP1;ratioP1;P1;durP2;ratioP2;P2;SDS_P1;SDS_P2;PMS_P1;PMS_P2;Temp;Humidity;BMP_temperature;BMP_pressure;BME280_temperature;BME280_humidity;BME280_pressure;Samples;Min_cycle;Max_cycle;Signal;HPM_P1;HPM_P2
2023/11/02 00:02:27;;;;;;;3.28;1.00;;;;;;;;;;5094345;28;20056;-64
2023/11/02 00:04:55;;;;;;;3.45;1.27;;;;;;;;;;5095511;28;20063;-63
2023/11/02 00:07:22;;;;;;;2.33;0.90;;;;;;;;;;5095301;28;20485;-63
2023/11/02 00:09:52;;;;;;;2.70;1.00;;;;;;;;;;5095478;28;20400;-63
2023/11/02 00:12:20;;;;;;;2.08;1.00;;;;;;;;;;5095043;28;20055;-63
2023/11/02 00:14:52;;;;;;;3.72;1.00;;;;;;;;;;5095251;28;20052;-63
2023/11/02 00:17:38;;;;;;;3.03;1.25;;;;;;;;;;5095061;28;20408;-63
2023/11/02 00:20:06;;;;;;;3.60;1.02;;;;;;;;;;5095387;28;20323;-63
2023/11/02 00:22:35;;;;;;;3.73;1.30;;;;;;;;;;5094844;28;20071;-63
2023/11/02 00:25:07;;;;;;;5.07;1.10;;;;;;;;;;5095313;28;20067;-63
2023/11/02 00:27:34;;;;;;;3.55;1.35;;;;;;;;;;5094843;28;20048;-63
2023/11/02 00:30:01;;;;;;;4.13;1.00;;;;;;;;;;5094961;28;20055;-63
2023/11/02 00:32:27;;;;;;;2.63;1.05;;;;;;;;;;5094838;28;20063;-63
2023/11/02 00:34:54;;;;;;;4.07;1.00;;;;;;;;;;5094835;28;20409;-63
2023/11/02 00:37:21;;;;;;;3.80;1.00;;;;;;;;;;5094696;28;20390;-63
2023/11/02 00:39:48;;;;;;;3.40;1.10;;;;;;;;;;5094679;28;20369;-63
2023/11/02 00:42:16;;;;;;;2.92;0.82;;;;;;;;;;5115197;28;20066;-63
2023/11/02 00:44:46;;;;;;;4.82;0.85;;;;;;;;;;5115180;28;20386;-63
2023/11/02 00:47:17;;;;;;;4.10;0.98;;;;;;;;;;5114663;28;20052;-63
2023/11/02 00:49:44;;;;;;;6.22;1.30;;;;;;;;;;5114681;28;20051;-63
2023/11/02 00:52:11;;;;;;;1.95;0.90;;;;;;;;;;5115004;28;20056;-63
2023/11/02 00:54:52;;;;;;;2.75;0.80;;;;;;;;;;5115129;28;20059;-63
2023/11/02 00:57:22;;;;;;;4.97;1.20;;;;;;;;;;5114850;28;20063;-63
2023/11/02 00:59:49;;;;;;;2.08;0.82;;;;;;;;;;5114539;28;20051;-63
2023/11/02 01:02:17;;;;;;;3.20;0.98;;;;;;;;;;5114715;28;20051;-63
2023/11/02 01:04:52;;;;;;;2.55;1.02;;;;;;;;;;5114590;28;20477;-63
2023/11/02 01:07:20;;;;;;;3.42;1.20;;;;;;;;;;5114451;28;20063;-63
2023/11/02 01:09:54;;;;;;;3.22;1.52;;;;;;;;;;5114713;28;20051;-64
2023/11/02 01:12:24;;;;;;;3.90;1.20;;;;;;;;;;5114636;28;20062;-63
2023/11/02 01:14:52;;;;;;;;;;;;;;;;;;5114222;28;20055;-63
2023/11/02 01:17:24;;;;;;;3.72;1.05;;;;;;;;;;5114817;28;20288;-63
2023/11/02 01:19:55;;;;;;;3.15;1.13;;;;;;;;;;5112801;28;20052;-63
2023/11/02 01:22:46;;;;;;;4.00;1.02;;;;;;;;;;5113900;28;20051;-64
2023/11/02 01:25:13;;;;;;;4.35;1.25;;;;;;;;;;5114424;28;20048;-63
2023/11/02 01:27:41;;;;;;;4.15;1.10;;;;;;;;;;5113623;28;20052;-64
2023/11/02 01:30:10;;;;;;;2.60;1.00;;;;;;;;;;5114186;28;20054;-63
2023/11/02 01:32:37;;;;;;;4.35;1.30;;;;;;;;;;5111315;28;20060;-63
2023/11/02 01:35:08;;;;;;;4.82;1.58;;;;;;;;;;5113185;28;20058;-63
2023/11/02 01:37:35;;;;;;;4.30;1.25;;;;;;;;;;5113911;28;20051;-64
2023/11/02 01:40:08;;;;;;;2.30;1.00;;;;;;;;;;5113727;28;20048;-63
2023/11/02 01:42:42;;;;;;;3.35;1.15;;;;;;;;;;5113686;28;20362;-63
2023/11/02 01:45:12;;;;;;;4.00;1.30;;;;;;;;;;5113689;28;20047;-64
2023/11/02 01:47:47;;;;;;;4.10;1.17;;;;;;;;;;5113661;28;20381;-63
2023/11/02 01:50:17;;;;;;;4.18;1.38;;;;;;;;;;5113263;28;20063;-63
2023/11/02 01:52:54;;;;;;;3.63;1.23;;;;;;;;;;5113510;28;20058;-63
2023/11/02 01:55:26;;;;;;;4.32;1.17;;;;;;;;;;5113977;28;20055;-63
2023/11/02 01:57:57;;;;;;;3.22;1.10;;;;;;;;;;5113496;28;20043;-63
2023/11/02 02:00:30;;;;;;;4.47;1.30;;;;;;;;;;5113491;28;20048;-63
2023/11/02 02:03:01;;;;;;;4.45;1.00;;;;;;;;;;5113648;28;20062;-63
2023/11/02 02:05:31;;;;;;;3.92;1.20;;;;;;;;;;5113676;28;20056;-63
2023/11/02 02:08:03;;;;;;;3.45;1.10;;;;;;;;;;5113595;28;20508;-63
2023/11/02 02:10:39;;;;;;;3.72;1.05;;;;;;;;;;5113022;28;20432;-63
2023/11/02 02:13:11;;;;;;;2.20;0.90;;;;;;;;;;5113305;28;20052;-62
2023/11/02 02:15:44;;;;;;;3.25;1.15;;;;;;;;;;5113658;28;20062;-63
2023/11/02 02:18:13;;;;;;;2.70;1.00;;;;;;;;;;5113611;28;20052;-63
2023/11/02 02:20:43;;;;;;;2.50;1.20;;;;;;;;;;5113195;28;20043;-63
2023/11/02 02:23:11;;;;;;;;;;;;;;;;;;5113701;28;20052;-63
2023/11/02 02:25:42;;;;;;;4.00;1.30;;;;;;;;;;5113163;28;19930;-63
2023/11/02 02:28:42;;;;;;;2.63;1.20;;;;;;;;;;5113011;28;20055;-63
2023/11/02 02:31:14;;;;;;;2.72;1.10;;;;;;;;;;5030378;28;20065;-63
2023/11/02 02:33:57;;;;;;;2.70;1.10;;;;;;;;;;5026274;28;20435;-62
2023/11/02 02:36:30;;;;;;;5.97;1.55;;;;;;;;;;5058302;28;20051;-62
2023/11/02 02:39:04;;;;;;;2.28;1.10;;;;;;;;;;5092452;28;20385;-62
2023/11/02 02:41:32;;;;;;;6.43;1.58;;;;;;;;;;5092655;28;20056;-62
2023/11/02 02:44:00;;;;;;;3.03;1.10;;;;;;;;;;5092620;28;20059;-62
2023/11/02 02:46:29;;;;;;;3.75;1.50;;;;;;;;;;5092676;28;20051;-63
2023/11/02 02:48:55;;;;;;;4.07;1.65;;;;;;;;;;5095545;28;20059;-62
2023/11/02 02:51:25;;;;;;;3.40;1.10;;;;;;;;;;5112820;28;20052;-63
2023/11/02 02:53:55;;;;;;;3.80;1.42;;;;;;;;;;5112528;28;20048;-62
2023/11/02 02:56:22;;;;;;;4.28;1.20;;;;;;;;;;5112494;28;20059;-62
2023/11/02 02:58:54;;;;;;;3.58;1.15;;;;;;;;;;5113076;28;20056;-63
2023/11/02 03:01:21;;;;;;;4.35;1.00;;;;;;;;;;5112589;28;20054;-63
2023/11/02 03:03:48;;;;;;;5.97;1.17;;;;;;;;;;5112545;28;20051;-62
2023/11/02 03:06:16;;;;;;;5.80;1.30;;;;;;;;;;5112964;28;20052;-62
2023/11/02 03:08:43;;;;;;;3.35;1.13;;;;;;;;;;5112416;28;20075;-62
2023/11/02 03:11:15;;;;;;;3.47;1.10;;;;;;;;;;5112706;28;20488;-62
2023/11/02 03:13:43;;;;;;;3.58;1.10;;;;;;;;;;5112657;28;20055;-62
2023/11/02 03:16:12;;;;;;;3.58;1.17;;;;;;;;;;5112522;28;20060;-62
2023/11/02 03:18:40;;;;;;;3.17;1.20;;;;;;;;;;5112338;28;20058;-62
2023/11/02 03:21:07;;;;;;;3.95;1.30;;;;;;;;;;5112355;28;20047;-61
2023/11/02 03:23:36;;;;;;;3.78;1.10;;;;;;;;;;5112123;28;20058;-62
2023/11/02 03:26:06;;;;;;;2.93;0.97;;;;;;;;;;5112255;28;20048;-61
2023/11/02 03:28:41;;;;;;;3.60;1.10;;;;;;;;;;5112062;28;20473;-62
2023/11/02 03:31:15;;;;;;;3.67;1.40;;;;;;;;;;5112436;28;20047;-62
2023/11/02 03:33:44;;;;;;;2.95;1.10;;;;;;;;;;5112418;28;20054;-61
2023/11/02 03:36:14;;;;;;;2.80;1.07;;;;;;;;;;5112134;28;20048;-62
2023/11/02 03:38:49;;;;;;;5.05;1.20;;;;;;;;;;5114753;28;20078;-62
2023/11/02 03:41:20;;;;;;;3.20;1.35;;;;;;;;;;5116099;28;20495;-62
2023/11/02 03:43:54;;;;;;;4.88;1.10;;;;;;;;;;5116431;28;20051;-62
2023/11/02 03:46:27;;;;;;;4.28;1.20;;;;;;;;;;5116361;28;20420;-62
2023/11/02 03:48:59;;;;;;;3.80;1.00;;;;;;;;;;5115957;28;20497;-62
2023/11/02 03:51:33;;;;;;;5.78;1.13;;;;;;;;;;5116410;28;20059;-62
2023/11/02 03:54:07;;;;;;;4.93;1.08;;;;;;;;;;5115774;28;20051;-62
2023/11/02 03:56:41;;;;;;;3.25;1.08;;;;;;;;;;5115689;28;20515;-62
2023/11/02 03:59:12;;;;;;;2.80;0.98;;;;;;;;;;5115600;28;20056;-61
2023/11/02 04:01:46;;;;;;;4.75;1.10;;;;;;;;;;5115318;28;20055;-61
2023/11/02 04:04:15;;;;;;;3.20;1.25;;;;;;;;;;5115943;28;20126;-62
2023/11/02 04:06:44;;;;;;;4.13;0.90;;;;;;;;;;5115848;28;20048;-62
2023/11/02 04:09:14;;;;;;;4.65;1.15;;;;;;;;;;5115813;28;20510;-62
2023/11/02 04:11:45;;;;;;;3.40;1.40;;;;;;;;;;5116081;28;20051;-62
2023/11/02 04:14:17;;;;;;;3.75;1.20;;;;;;;;;;5115718;28;20055;-63
2023/11/02 04:16:44;;;;;;;5.25;1.10;;;;;;;;;;5115426;28;20158;-62
2023/11/02 04:19:11;;;;;;;3.33;1.17;;;;;;;;;;5115251;28;20051;-61
2023/11/02 04:21:39;;;;;;;6.07;1.10;;;;;;;;;;5115484;28;20058;-62
2023/11/02 04:24:06;;;;;;;3.60;1.30;;;;;;;;;;5115559;28;20047;-61
2023/11/02 04:26:34;;;;;;;3.55;1.10;;;;;;;;;;5114944;28;20054;-62
2023/11/02 04:29:01;;;;;;;2.72;0.95;;;;;;;;;;5115466;28;20460;-62
2023/11/02 04:31:29;;;;;;;4.00;1.20;;;;;;;;;;5115388;28;20054;-62
2023/11/02 04:33:56;;;;;;;1.73;0.75;;;;;;;;;;5115021;28;20408;-62
2023/11/02 04:36:23;;;;;;;4.18;1.67;;;;;;;;;;5114914;28;20051;-62
2023/11/02 04:38:52;;;;;;;3.65;1.05;;;;;;;;;;5114501;28;20048;-61
2023/11/02 04:41:19;;;;;;;2.72;1.10;;;;;;;;;;5115245;28;20048;-62
2023/11/02 04:43:46;;;;;;;3.45;1.10;;;;;;;;;;5114720;28;20054;-62
2023/11/02 04:46:13;;;;;;;3.92;1.00;;;;;;;;;;5114684;28;20058;-63
2023/11/02 04:48:41;;;;;;;3.70;1.10;;;;;;;;;;5114666;28;20070;-62
2023/11/02 04:51:08;;;;;;;3.22;1.02;;;;;;;;;;5115399;28;20050;-61
2023/11/02 04:53:34;;;;;;;2.63;1.15;;;;;;;;;;5114854;28;20058;-62
2023/11/02 04:56:01;;;;;;;2.60;1.00;;;;;;;;;;5114441;28;20059;-61
2023/11/02 04:58:28;;;;;;;2.67;1.10;;;;;;;;;;5114295;28;20055;-61
2023/11/02 05:00:55;;;;;;;4.93;1.00;;;;;;;;;;5114538;28;20047;-61
2023/11/02 05:03:22;;;;;;;2.90;1.02;;;;;;;;;;5114672;28;20061;-61
2023/11/02 05:05:53;;;;;;;2.95;1.10;;;;;;;;;;5114696;28;20404;-62
2023/11/02 05:08:22;;;;;;;4.60;1.00;;;;;;;;;;5114471;28;20507;-62
2023/11/02 05:10:48;;;;;;;3.17;1.20;;;;;;;;;;5114672;28;20051;-62
2023/11/02 05:13:15;;;;;;;4.53;1.25;;;;;;;;;;5114431;28;20059;-62
2023/11/02 05:15:42;;;;;;;5.90;1.42;;;;;;;;;;5114382;28;20058;-62
2023/11/02 05:18:09;;;;;;;3.38;0.98;;;;;;;;;;5114229;28;20158;-62
2023/11/02 05:20:36;;;;;;;3.30;1.25;;;;;;;;;;5114434;28;20050;-61
2023/11/02 05:23:05;;;;;;;5.15;1.13;;;;;;;;;;5113954;28;20052;-63
2023/11/02 05:25:33;;;;;;;3.42;1.23;;;;;;;;;;5114206;28;20051;-62
2023/11/02 05:28:00;;;;;;;4.93;1.20;;;;;;;;;;5114282;28;20075;-62
2023/11/02 05:30:27;;;;;;;2.90;0.90;;;;;;;;;;5113840;28;20048;-61
2023/11/02 05:32:53;;;;;;;3.85;0.90;;;;;;;;;;5113473;28;20073;-62
2023/11/02 05:35:20;;;;;;;5.07;1.13;;;;;;;;;;5114014;28;20048;-62
2023/11/02 05:37:47;;;;;;;2.40;0.85;;;;;;;;;;5113795;28;20051;-62
2023/11/02 05:40:15;;;;;;;3.58;1.25;;;;;;;;;;5113622;28;20472;-62
2023/11/02 05:42:42;;;;;;;2.88;0.95;;;;;;;;;;5113796;28;20055;-62
2023/11/02 05:45:09;;;;;;;3.63;1.00;;;;;;;;;;5113653;28;20485;-63
2023/11/02 05:47:36;;;;;;;2.17;0.80;;;;;;;;;;5113466;28;20056;-63
2023/11/02 05:50:03;;;;;;;5.00;0.93;;;;;;;;;;5112951;28;20523;-62
2023/11/02 05:52:30;;;;;;;1.92;0.63;;;;;;;;;;5113583;28;20054;-62
2023/11/02 05:54:56;;;;;;;4.50;0.90;;;;;;;;;;5113496;28;20059;-64
2023/11/02 05:57:25;;;;;;;3.00;0.90;;;;;;;;;;5113069;28;20063;-63
2023/11/02 05:59:51;;;;;;;2.35;0.90;;;;;;;;;;5113591;28;20246;-63
2023/11/02 06:02:18;;;;;;;2.50;0.90;;;;;;;;;;5112542;28;20063;-63
2023/11/02 06:04:45;;;;;;;2.25;0.95;;;;;;;;;;5113220;28;20047;-64
2023/11/02 06:07:12;;;;;;;2.30;0.80;;;;;;;;;;5112983;28;20055;-63
2023/11/02 06:09:39;;;;;;;2.45;0.95;;;;;;;;;;5112965;28;20048;-62
2023/11/02 06:12:06;;;;;;;4.20;0.90;;;;;;;;;;5113268;28;20050;-63
2023/11/02 06:14:34;;;;;;;3.30;0.90;;;;;;;;;;5113211;28;20051;-62
2023/11/02 06:17:01;;;;;;;2.28;0.90;;;;;;;;;;5113195;28;20055;-63
2023/11/02 06:19:28;;;;;;;2.75;1.10;;;;;;;;;;5112956;28;20047;-62
2023/11/02 06:21:55;;;;;;;1.75;0.95;;;;;;;;;;5112525;28;20051;-63
2023/11/02 06:24:22;;;;;;;2.38;1.00;;;;;;;;;;5112919;28;20508;-62
2023/11/02 06:26:48;;;;;;;1.58;0.80;;;;;;;;;;5112870;28;20511;-63
2023/11/02 06:29:15;;;;;;;1.92;0.68;;;;;;;;;;5112926;28;20366;-63
2023/11/02 06:31:43;;;;;;;1.63;0.70;;;;;;;;;;5112654;28;20055;-62
2023/11/02 06:34:10;;;;;;;4.72;0.85;;;;;;;;;;5112775;28;20052;-62
2023/11/02 06:36:37;;;;;;;1.50;0.70;;;;;;;;;;5112820;28;20059;-63
2023/11/02 06:39:05;;;;;;;4.47;0.80;;;;;;;;;;5112700;28;20071;-63
2023/11/02 06:41:31;;;;;;;2.17;0.70;;;;;;;;;;5112790;28;20059;-62
2023/11/02 06:43:58;;;;;;;2.75;0.90;;;;;;;;;;5112633;28;20382;-62
2023/11/02 06:46:25;;;;;;;2.10;0.77;;;;;;;;;;5112908;28;20047;-63
2023/11/02 06:48:53;;;;;;;3.78;0.88;;;;;;;;;;5112597;28;20047;-63
2023/11/02 06:51:21;;;;;;;1.83;0.60;;;;;;;;;;5112574;28;20044;-63
2023/11/02 06:53:47;;;;;;;3.45;0.95;;;;;;;;;;5112870;28;20059;-63
2023/11/02 06:56:14;;;;;;;3.72;0.80;;;;;;;;;;5112198;28;20217;-63
2023/11/02 06:58:41;;;;;;;5.45;1.08;;;;;;;;;;5112459;28;20507;-63
2023/11/02 07:01:08;;;;;;;3.63;1.40;;;;;;;;;;5112663;28;20370;-62
2023/11/02 07:03:34;;;;;;;2.33;0.70;;;;;;;;;;5112027;28;20052;-62
2023/11/02 07:06:04;;;;;;;2.65;0.80;;;;;;;;;;5112226;28;20059;-62
2023/11/02 07:08:31;;;;;;;2.72;0.60;;;;;;;;;;5112191;28;20492;-62
2023/11/02 07:10:57;;;;;;;1.73;0.77;;;;;;;;;;5112128;28;20416;-62
2023/11/02 07:13:24;;;;;;;0.98;0.35;;;;;;;;;;5114251;27;20062;-64
2023/11/02 07:15:51;;;;;;;2.95;0.57;;;;;;;;;;5116942;28;20396;-64
2023/11/02 07:18:18;;;;;;;1.85;0.68;;;;;;;;;;5116158;28;20048;-64
2023/11/02 07:20:45;;;;;;;2.30;0.60;;;;;;;;;;5117007;28;20405;-63
2023/11/02 07:23:13;;;;;;;1.50;0.50;;;;;;;;;;5116694;28;20052;-63
2023/11/02 07:25:40;;;;;;;2.25;0.60;;;;;;;;;;5116077;28;20048;-63
2023/11/02 07:28:07;;;;;;;2.15;0.50;;;;;;;;;;5116080;28;20048;-63
2023/11/02 07:30:34;;;;;;;2.42;0.50;;;;;;;;;;5116646;28;20408;-63
2023/11/02 07:33:00;;;;;;;4.88;0.70;;;;;;;;;;5115922;28;20051;-63
2023/11/02 07:35:27;;;;;;;1.25;0.50;;;;;;;;;;5116278;28;20059;-63
2023/11/02 07:37:54;;;;;;;1.85;0.70;;;;;;;;;;5116096;28;20495;-63
2023/11/02 07:40:22;;;;;;;2.78;0.60;;;;;;;;;;5116271;28;20063;-63
2023/11/02 07:42:49;;;;;;;1.63;0.73;;;;;;;;;;5115775;28;20051;-63
2023/11/02 07:45:16;;;;;;;5.43;0.73;;;;;;;;;;5116065;28;20392;-63
2023/11/02 07:47:43;;;;;;;1.95;1.00;;;;;;;;;;5116158;28;20511;-64
2023/11/02 07:50:10;;;;;;;1.75;0.60;;;;;;;;;;5115606;28;20412;-63
2023/11/02 07:52:37;;;;;;;3.33;0.65;;;;;;;;;;5115796;28;20044;-63
2023/11/02 07:55:04;;;;;;;2.45;0.73;;;;;;;;;;5116028;28;20059;-62
2023/11/02 07:57:34;;;;;;;1.40;0.60;;;;;;;;;;5116025;28;20059;-62
2023/11/02 08:00:01;;;;;;;2.08;0.90;;;;;;;;;;5116057;28;20051;-62
2023/11/02 08:02:28;;;;;;;1.45;0.50;;;;;;;;;;5116106;28;20480;-63
2023/11/02 08:04:55;;;;;;;1.25;0.60;;;;;;;;;;5115750;28;20055;-62
2023/11/02 08:07:22;;;;;;;2.22;0.70;;;;;;;;;;5115361;28;20048;-62
2023/11/02 08:09:48;;;;;;;2.25;0.77;;;;;;;;;;5115817;28;20078;-63
2023/11/02 08:12:15;;;;;;;1.80;0.82;;;;;;;;;;5115331;28;20051;-63
2023/11/02 08:14:43;;;;;;;2.72;0.80;;;;;;;;;;5115970;28;20056;-63
2023/11/02 08:17:12;;;;;;;2.55;0.75;;;;;;;;;;5115744;28;20499;-62
2023/11/02 08:19:39;;;;;;;1.20;0.68;;;;;;;;;;5115690;28;20063;-62
2023/11/02 08:22:06;;;;;;;5.03;0.90;;;;;;;;;;5115509;28;20059;-62
2023/11/02 08:24:32;;;;;;;1.90;0.60;;;;;;;;;;5114739;28;20064;-62
2023/11/02 08:26:59;;;;;;;1.92;0.70;;;;;;;;;;5115007;28;20047;-62
2023/11/02 08:29:26;;;;;;;1.95;0.65;;;;;;;;;;5114892;28;20058;-62
2023/11/02 08:31:54;;;;;;;2.03;0.65;;;;;;;;;;5114893;28;20048;-62
2023/11/02 08:34:22;;;;;;;1.88;0.70;;;;;;;;;;5114893;28;20051;-63
2023/11/02 08:36:48;;;;;;;4.45;0.77;;;;;;;;;;5115289;28;20051;-62
2023/11/02 08:39:15;;;;;;;2.13;0.55;;;;;;;;;;5114780;28;20138;-62
2023/11/02 08:41:42;;;;;;;2.97;0.82;;;;;;;;;;5114443;28;20047;-63
2023/11/02 08:44:09;;;;;;;2.53;0.75;;;;;;;;;;5114746;28;20048;-63
2023/11/02 08:46:36;;;;;;;2.00;0.80;;;;;;;;;;5114695;28;20062;-67
2023/11/02 08:49:04;;;;;;;3.08;1.08;;;;;;;;;;5114567;28;20078;-66
2023/11/02 08:51:31;;;;;;;1.73;0.73;;;;;;;;;;5114801;28;20051;-66
2023/11/02 08:53:59;;;;;;;2.92;0.95;;;;;;;;;;5114783;28;20048;-66
2023/11/02 08:56:25;;;;;;;3.03;0.90;;;;;;;;;;5114572;28;20487;-66
2023/11/02 08:58:53;;;;;;;5.15;1.25;;;;;;;;;;5114453;28;20491;-66
2023/11/02 09:01:22;;;;;;;2.03;0.90;;;;;;;;;;5114216;28;20059;-65
2023/11/02 09:03:50;;;;;;;2.17;0.77;;;;;;;;;;5114322;28;20063;-66
2023/11/02 09:06:19;;;;;;;2.30;1.00;;;;;;;;;;5114675;28;20054;-66
2023/11/02 09:08:46;;;;;;;4.03;1.00;;;;;;;;;;5114548;28;20051;-66
2023/11/02 09:11:13;;;;;;;1.77;0.80;;;;;;;;;;5114423;28;20051;-66
2023/11/02 09:13:40;;;;;;;2.78;0.93;;;;;;;;;;5113829;28;20051;-66
2023/11/02 09:16:08;;;;;;;2.58;1.00;;;;;;;;;;5114707;28;20058;-66
2023/11/02 09:18:35;;;;;;;1.35;0.90;;;;;;;;;;5114270;28;20055;-66
2023/11/02 09:21:04;;;;;;;3.88;0.88;;;;;;;;;;5114445;28;20051;-65
2023/11/02 09:23:34;;;;;;;3.42;0.77;;;;;;;;;;5113787;28;20043;-65
2023/11/02 09:26:02;;;;;;;1.90;0.80;;;;;;;;;;5114243;28;20052;-65
2023/11/02 09:28:28;;;;;;;2.42;0.80;;;;;;;;;;5114628;28;20067;-65
2023/11/02 09:30:55;;;;;;;3.63;0.93;;;;;;;;;;5114895;28;20071;-65
2023/11/02 09:33:22;;;;;;;3.75;0.90;;;;;;;;;;5114487;28;20044;-66
2023/11/02 09:35:49;;;;;;;4.88;1.30;;;;;;;;;;5113247;28;20055;-66
2023/11/02 09:38:15;;;;;;;2.92;1.13;;;;;;;;;;5114007;28;20062;-65
2023/11/02 09:40:44;;;;;;;1.83;0.82;;;;;;;;;;5114136;28;20495;-64
2023/11/02 09:43:11;;;;;;;3.95;1.17;;;;;;;;;;5113974;28;20382;-64
2023/11/02 09:45:38;;;;;;;3.05;1.08;;;;;;;;;;5114665;28;20063;-64
2023/11/02 09:48:05;;;;;;;3.15;1.10;;;;;;;;;;5114772;28;20407;-65
2023/11/02 09:50:32;;;;;;;1.73;0.80;;;;;;;;;;5114339;28;20500;-64
2023/11/02 09:52:59;;;;;;;2.20;0.80;;;;;;;;;;5114147;28;20052;-65
2023/11/02 09:55:26;;;;;;;1.90;0.80;;;;;;;;;;5113683;28;20051;-64
2023/11/02 09:57:54;;;;;;;1.83;0.70;;;;;;;;;;5113937;28;20052;-64
2023/11/02 10:00:21;;;;;;;2.85;1.00;;;;;;;;;;5114038;28;20055;-64
2023/11/02 10:02:49;;;;;;;3.40;0.85;;;;;;;;;;5113580;28;20074;-64
2023/11/02 10:05:16;;;;;;;3.58;0.80;;;;;;;;;;5114205;28;20056;-64
2023/11/02 10:07:43;;;;;;;1.55;0.70;;;;;;;;;;5114041;28;20515;-64
2023/11/02 10:10:10;;;;;;;2.95;1.02;;;;;;;;;;5114124;28;20052;-64
2023/11/02 10:12:38;;;;;;;2.97;1.00;;;;;;;;;;5114078;28;20499;-64
2023/11/02 10:15:07;;;;;;;2.50;0.80;;;;;;;;;;5114423;28;20060;-63
2023/11/02 10:17:34;;;;;;;4.68;1.02;;;;;;;;;;5113147;28;20507;-63
2023/11/02 10:20:03;;;;;;;2.13;1.00;;;;;;;;;;5113589;28;20062;-64
2023/11/02 10:22:30;;;;;;;1.92;0.73;;;;;;;;;;5112918;28;20058;-64
2023/11/02 10:24:58;;;;;;;4.05;0.95;;;;;;;;;;5113475;28;20051;-64
2023/11/02 10:27:25;;;;;;;2.67;0.60;;;;;;;;;;5112715;28;20393;-64
2023/11/02 10:29:52;;;;;;;2.10;0.95;;;;;;;;;;5112848;28;20070;-65
2023/11/02 10:32:21;;;;;;;3.20;1.10;;;;;;;;;;5112864;28;20051;-66
2023/11/02 10:34:48;;;;;;;1.55;0.68;;;;;;;;;;5113068;28;20397;-66
2023/11/02 10:37:19;;;;;;;2.22;0.80;;;;;;;;;;5112854;28;20078;-66
2023/11/02 10:39:46;;;;;;;2.53;1.00;;;;;;;;;;5113878;28;20412;-64
2023/11/02 10:42:15;;;;;;;4.25;0.93;;;;;;;;;;5113896;28;20047;-66
2023/11/02 10:44:49;;;;;;;2.15;0.95;;;;;;;;;;5117097;28;20066;-65
2023/11/02 10:47:17;;;;;;;4.90;1.00;;;;;;;;;;5118887;28;20048;-64
2023/11/02 10:49:45;;;;;;;4.03;0.90;;;;;;;;;;5112195;28;20066;-64
2023/11/02 10:52:14;;;;;;;2.90;0.85;;;;;;;;;;5112695;28;20055;-63
2023/11/02 10:54:47;;;;;;;2.45;0.85;;;;;;;;;;5112654;28;20047;-63
2023/11/02 10:57:15;;;;;;;2.03;1.10;;;;;;;;;;5112936;28;20062;-62
2023/11/02 10:59:43;;;;;;;2.88;1.05;;;;;;;;;;5112566;28;20501;-62
2023/11/02 11:02:11;;;;;;;4.03;1.27;;;;;;;;;;5112512;28;20051;-62
2023/11/02 11:04:40;;;;;;;3.80;1.20;;;;;;;;;;5112411;28;20047;-63
2023/11/02 11:07:09;;;;;;;4.35;1.15;;;;;;;;;;5112671;28;20051;-63
2023/11/02 11:09:36;;;;;;;3.70;1.00;;;;;;;;;;5112515;28;20060;-62
2023/11/02 11:12:04;;;;;;;1.92;0.75;;;;;;;;;;5112292;28;20059;-63
2023/11/02 11:14:31;;;;;;;3.10;0.80;;;;;;;;;;5112464;28;20047;-63
2023/11/02 11:16:59;;;;;;;3.28;0.95;;;;;;;;;;5112546;28;20066;-63
2023/11/02 11:19:29;;;;;;;3.78;1.00;;;;;;;;;;5112318;28;20377;-63
2023/11/02 11:21:58;;;;;;;1.77;0.70;;;;;;;;;;5111995;28;20056;-63
2023/11/02 11:24:31;;;;;;;3.90;1.30;;;;;;;;;;5112326;28;20818;-63
2023/11/02 11:26:58;;;;;;;2.90;0.98;;;;;;;;;;5112581;28;20052;-63
2023/11/02 11:29:35;;;;;;;2.80;0.88;;;;;;;;;;5112183;28;20492;-63
2023/11/02 11:32:02;;;;;;;2.72;1.00;;;;;;;;;;5112411;28;20051;-63
2023/11/02 11:34:44;;;;;;;3.20;1.05;;;;;;;;;;5112392;28;20051;-63
2023/11/02 11:37:29;;;;;;;4.63;1.17;;;;;;;;;;5111819;28;20052;-63
2023/11/02 11:39:58;;;;;;;5.15;0.95;;;;;;;;;;5112761;28;20048;-63
2023/11/02 11:42:39;;;;;;;2.40;0.93;;;;;;;;;;5111930;28;20047;-63
2023/11/02 11:45:21;;;;;;;6.05;1.00;;;;;;;;;;5111377;28;20471;-63
2023/11/02 11:47:48;;;;;;;4.40;0.90;;;;;;;;;;5109563;28;20404;-63
2023/11/02 11:50:29;;;;;;;2.58;0.93;;;;;;;;;;5111906;28;20082;-63
2023/11/02 11:53:07;;;;;;;4.78;0.88;;;;;;;;;;5112154;28;20062;-63
2023/11/02 11:55:36;;;;;;;3.03;0.95;;;;;;;;;;5112321;28;20058;-63
2023/11/02 11:58:06;;;;;;;3.53;0.90;;;;;;;;;;5111646;28;20377;-63
2023/11/02 12:00:33;;;;;;;2.72;1.00;;;;;;;;;;5115067;28;20063;-63
2023/11/02 12:03:04;;;;;;;4.00;0.98;;;;;;;;;;5114851;28;20056;-63
2023/11/02 12:05:49;;;;;;;2.63;1.00;;;;;;;;;;5115487;28;20493;-64
2023/11/02 12:08:17;;;;;;;3.95;1.10;;;;;;;;;;5114896;28;20169;-64
2023/11/02 12:10:46;;;;;;;2.85;0.90;;;;;;;;;;5115245;28;20043;-64
2023/11/02 12:13:13;;;;;;;3.28;0.93;;;;;;;;;;5115677;28;20055;-63
2023/11/02 12:15:50;;;;;;;2.88;1.10;;;;;;;;;;5115716;28;20047;-63
2023/11/02 12:18:18;;;;;;;3.17;1.10;;;;;;;;;;5114164;28;20063;-64
2023/11/02 12:20:45;;;;;;;3.40;1.20;;;;;;;;;;5115568;28;20056;-64
2023/11/02 12:23:13;;;;;;;4.18;1.00;;;;;;;;;;5114446;28;20058;-64
2023/11/02 12:25:40;;;;;;;3.58;1.00;;;;;;;;;;5115102;28;20349;-64
2023/11/02 12:28:11;;;;;;;3.72;1.20;;;;;;;;;;5115507;28;20055;-64
2023/11/02 12:30:41;;;;;;;4.10;1.10;;;;;;;;;;5115252;28;20372;-64
2023/11/02 12:33:08;;;;;;;2.63;0.90;;;;;;;;;;5114824;28;20074;-64
2023/11/02 12:35:35;;;;;;;2.65;1.10;;;;;;;;;;5115244;28;20047;-64
2023/11/02 12:38:02;;;;;;;3.13;1.10;;;;;;;;;;5114943;28;20047;-64
2023/11/02 12:40:29;;;;;;;2.80;1.27;;;;;;;;;;5115265;28;20503;-64
2023/11/02 12:42:56;;;;;;;3.47;0.90;;;;;;;;;;5115022;28;20097;-64
2023/11/02 12:45:24;;;;;;;2.20;0.88;;;;;;;;;;5115084;28;20051;-64
2023/11/02 12:47:51;;;;;;;2.70;1.20;;;;;;;;;;5114856;28;20058;-64
2023/11/02 12:50:27;;;;;;;3.15;1.25;;;;;;;;;;5114634;28;20059;-64
2023/11/02 12:52:54;;;;;;;4.70;1.27;;;;;;;;;;5114907;28;20485;-64
2023/11/02 12:55:25;;;;;;;4.60;1.02;;;;;;;;;;5114505;28;20472;-64
2023/11/02 12:57:52;;;;;;;3.72;1.20;;;;;;;;;;5114886;28;20051;-64
2023/11/02 13:00:19;;;;;;;4.43;0.90;;;;;;;;;;5114856;28;20055;-64
2023/11/02 13:02:47;;;;;;;3.15;1.00;;;;;;;;;;5114621;28;20063;-64
2023/11/02 13:05:18;;;;;;;3.15;1.10;;;;;;;;;;5114697;28;20052;-64
2023/11/02 13:07:51;;;;;;;3.42;0.90;;;;;;;;;;5114317;28;20085;-64
2023/11/02 13:10:20;;;;;;;4.97;1.30;;;;;;;;;;5114329;28;20055;-64
2023/11/02 13:12:47;;;;;;;3.65;1.13;;;;;;;;;;5114161;28;20052;-64
2023/11/02 13:15:16;;;;;;;4.15;1.10;;;;;;;;;;5108519;28;20054;-65
2023/11/02 13:17:44;;;;;;;2.90;1.00;;;;;;;;;;5107114;28;20506;-65
2023/11/02 13:20:15;;;;;;;3.88;1.05;;;;;;;;;;5108863;28;20067;-65
2023/11/02 13:22:45;;;;;;;4.05;1.13;;;;;;;;;;5099272;27;20051;-63
2023/11/02 13:25:15;;;;;;;2.30;1.10;;;;;;;;;;5098707;27;20043;-65
2023/11/02 13:27:44;;;;;;;2.88;1.17;;;;;;;;;;5091755;27;20043;-65
2023/11/02 13:30:12;;;;;;;2.25;1.00;;;;;;;;;;5092313;27;20060;-65
2023/11/02 13:32:39;;;;;;;3.47;1.00;;;;;;;;;;5086320;28;20067;-66
2023/11/02 13:35:06;;;;;;;4.53;1.50;;;;;;;;;;5082799;28;20452;-64
2023/11/02 13:37:34;;;;;;;4.70;1.25;;;;;;;;;;5098602;28;20047;-65
2023/11/02 13:40:01;;;;;;;3.67;1.20;;;;;;;;;;5103115;28;20066;-65
2023/11/02 13:42:28;;;;;;;7.18;1.27;;;;;;;;;;5106862;28;20051;-65
2023/11/02 13:44:55;;;;;;;4.55;1.60;;;;;;;;;;5106562;27;20059;-65
2023/11/02 13:47:23;;;;;;;4.55;1.23;;;;;;;;;;5088242;28;20050;-64
2023/11/02 13:49:49;;;;;;;3.22;1.10;;;;;;;;;;5085469;27;20055;-65
2023/11/02 13:52:16;;;;;;;5.70;1.20;;;;;;;;;;5089641;28;20059;-65
2023/11/02 13:54:44;;;;;;;4.72;1.23;;;;;;;;;;5104107;27;20377;-65
2023/11/02 13:57:11;;;;;;;4.90;1.88;;;;;;;;;;5103397;28;20048;-64
2023/11/02 13:59:38;;;;;;;4.82;1.25;;;;;;;;;;5083716;28;20482;-64
2023/11/02 14:02:05;;;;;;;4.53;1.27;;;;;;;;;;5089418;28;20436;-64
2023/11/02 14:04:32;;;;;;;6.05;1.75;;;;;;;;;;5088885;27;20491;-64
2023/11/02 14:06:59;;;;;;;8.75;1.90;;;;;;;;;;5081495;27;20059;-64
2023/11/02 14:09:26;;;;;;;3.42;1.50;;;;;;;;;;5094644;28;20547;-64
2023/11/02 14:11:54;;;;;;;6.57;1.67;;;;;;;;;;5087843;28;20052;-64
2023/11/02 14:14:21;;;;;;;4.65;1.20;;;;;;;;;;5083895;28;20052;-64
2023/11/02 14:16:48;;;;;;;3.40;1.40;;;;;;;;;;5109537;27;20059;-64
2023/11/02 14:19:17;;;;;;;3.22;1.13;;;;;;;;;;5108735;28;20400;-64
2023/11/02 14:21:44;;;;;;;3.20;1.08;;;;;;;;;;5098922;28;20059;-64
2023/11/02 14:24:12;;;;;;;5.32;1.90;;;;;;;;;;5103344;27;20047;-63
2023/11/02 14:26:40;;;;;;;3.85;2.03;;;;;;;;;;5109462;28;20052;-64
2023/11/02 14:29:08;;;;;;;4.35;2.20;;;;;;;;;;5099799;28;20086;-64
2023/11/02 14:31:35;;;;;;;4.25;1.48;;;;;;;;;;5104245;27;20397;-64
2023/11/02 14:34:02;;;;;;;4.57;3.45;;;;;;;;;;5110640;28;20047;-64
2023/11/02 14:36:30;;;;;;;3.42;2.97;;;;;;;;;;5101773;28;20409;-64
2023/11/02 14:38:59;;;;;;;4.68;3.08;;;;;;;;;;5107414;28;20048;-64
2023/11/02 14:41:26;;;;;;;5.55;3.58;;;;;;;;;;5117499;27;20067;-64
2023/11/02 14:43:53;;;;;;;6.00;2.13;;;;;;;;;;5110267;27;20473;-64
2023/11/02 14:46:21;;;;;;;3.83;1.55;;;;;;;;;;5103970;28;20052;-64
2023/11/02 14:48:48;;;;;;;3.88;1.20;;;;;;;;;;5107908;28;20052;-65
2023/11/02 14:51:15;;;;;;;5.25;1.70;;;;;;;;;;5107557;27;20047;-65
2023/11/02 14:53:42;;;;;;;6.82;1.65;;;;;;;;;;5108424;28;20043;-65